sensor_id;sensor_type;location;lat;lon;timestamp;P1;durP1;ratioP1;P2;durP2;ratioP2
31734;SDS011;18313;48.518;9.124;2023-05-20T00:01:01;7.35;;;4.85;;
31734;SDS011;18313;48.518;9.124;2023-05-20T00:03:28;11.85;;;6.43;;
31734;SDS011;18313;48.518;9.124;2023-05-20T00:05:55;9.00;;;5.78;;
31734;SDS011;18313;48.518;9.124;2023-05-20T00:08:23;9.32;;;5.30;;
31734;SDS011;18313;48.518;9.124;2023-05-20T00:10:50;10.00;;;5.30;;
31734;SDS011;18313;48.518;9.124;2023-05-20T00:13:17;12.07;;;5.78;;
31734;SDS011;18313;48.518;9.124;2023-05-20T00:15:44;10.10;;;5.70;;
31734;SDS011;18313;48.518;9.124;2023-05-20T00:18:11;12.23;;;6.15;;
31734;SDS011;18313;48.518;9.124;2023-05-20T00:20:38;9.23;;;5.47;;
31734;SDS011;18313;48.518;9.124;2023-05-20T00:23:06;9.98;;;5.15;;
31734;SDS011;18313;48.518;9.124;2023-05-20T00:25:33;11.27;;;5.85;;
31734;SDS011;18313;48.518;9.124;2023-05-20T00:28:01;10.25;;;6.15;;
31734;SDS011;18313;48.518;9.124;2023-05-20T00:30:28;9.23;;;5.75;;
31734;SDS011;18313;48.518;9.124;2023-05-20T00:32:55;10.23;;;6.40;;
31734;SDS011;18313;48.518;9.124;2023-05-20T00:35:22;11.43;;;6.40;;
31734;SDS011;18313;48.518;9.124;2023-05-20T00:37:49;10.68;;;6.03;;
31734;SDS011;18313;48.518;9.124;2023-05-20T00:40:17;10.18;;;6.57;;
31734;SDS011;18313;48.518;9.124;2023-05-20T00:42:44;9.23;;;6.55;;
31734;SDS011;18313;48.518;9.124;2023-05-20T00:45:11;10.85;;;6.53;;
31734;SDS011;18313;48.518;9.124;2023-05-20T00:47:38;10.02;;;6.00;;
31734;SDS011;18313;48.518;9.124;2023-05-20T00:50:06;10.70;;;5.82;;
31734;SDS011;18313;48.518;9.124;2023-05-20T00:52:34;13.95;;;7.18;;
31734;SDS011;18313;48.518;9.124;2023-05-20T00:55:02;12.18;;;6.25;;
31734;SDS011;18313;48.518;9.124;2023-05-20T00:57:29;9.52;;;6.30;;
31734;SDS011;18313;48.518;9.124;2023-05-20T00:59:57;9.93;;;6.18;;
31734;SDS011;18313;48.518;9.124;2023-05-20T01:02:24;11.02;;;6.00;;
31734;SDS011;18313;48.518;9.124;2023-05-20T01:04:52;11.75;;;6.30;;
31734;SDS011;18313;48.518;9.124;2023-05-20T01:07:22;8.85;;;5.85;;
31734;SDS011;18313;48.518;9.124;2023-05-20T01:09:50;11.98;;;6.45;;
31734;SDS011;18313;48.518;9.124;2023-05-20T01:12:21;12.38;;;6.88;;
31734;SDS011;18313;48.518;9.124;2023-05-20T01:15:04;14.27;;;6.88;;
31734;SDS011;18313;48.518;9.124;2023-05-20T01:17:38;11.35;;;6.13;;
31734;SDS011;18313;48.518;9.124;2023-05-20T01:20:13;11.38;;;6.57;;
31734;SDS011;18313;48.518;9.124;2023-05-20T01:22:54;9.93;;;6.80;;
31734;SDS011;18313;48.518;9.124;2023-05-20T01:25:22;9.50;;;6.30;;
31734;SDS011;18313;48.518;9.124;2023-05-20T01:27:51;11.85;;;6.30;;
31734;SDS011;18313;48.518;9.124;2023-05-20T01:30:19;10.30;;;6.20;;
31734;SDS011;18313;48.518;9.124;2023-05-20T01:32:49;8.15;;;5.63;;
31734;SDS011;18313;48.518;9.124;2023-05-20T01:35:21;9.98;;;6.45;;
31734;SDS011;18313;48.518;9.124;2023-05-20T01:37:48;11.07;;;6.43;;
31734;SDS011;18313;48.518;9.124;2023-05-20T01:40:17;9.57;;;6.40;;
31734;SDS011;18313;48.518;9.124;2023-05-20T01:42:45;10.90;;;6.28;;
31734;SDS011;18313;48.518;9.124;2023-05-20T01:45:18;10.57;;;6.28;;
31734;SDS011;18313;48.518;9.124;2023-05-20T01:47:46;10.85;;;6.60;;
31734;SDS011;18313;48.518;9.124;2023-05-20T01:50:14;10.13;;;6.72;;
31734;SDS011;18313;48.518;9.124;2023-05-20T01:52:41;11.32;;;5.80;;
31734;SDS011;18313;48.518;9.124;2023-05-20T01:55:08;9.35;;;6.07;;
31734;SDS011;18313;48.518;9.124;2023-05-20T01:57:35;13.88;;;5.78;;
31734;SDS011;18313;48.518;9.124;2023-05-20T02:00:02;10.13;;;6.25;;
31734;SDS011;18313;48.518;9.124;2023-05-20T02:02:31;13.70;;;7.50;;
31734;SDS011;18313;48.518;9.124;2023-05-20T02:04:59;10.05;;;6.70;;
31734;SDS011;18313;48.518;9.124;2023-05-20T02:07:26;11.48;;;6.38;;
31734;SDS011;18313;48.518;9.124;2023-05-20T02:09:53;10.10;;;7.07;;
31734;SDS011;18313;48.518;9.124;2023-05-20T02:12:20;11.10;;;6.85;;
31734;SDS011;18313;48.518;9.124;2023-05-20T02:14:47;11.20;;;6.43;;
31734;SDS011;18313;48.518;9.124;2023-05-20T02:17:16;13.25;;;6.55;;
31734;SDS011;18313;48.518;9.124;2023-05-20T02:19:43;10.23;;;5.82;;
31734;SDS011;18313;48.518;9.124;2023-05-20T02:22:11;9.95;;;6.00;;
31734;SDS011;18313;48.518;9.124;2023-05-20T02:24:39;11.07;;;5.88;;
31734;SDS011;18313;48.518;9.124;2023-05-20T02:27:08;10.02;;;5.93;;
31734;SDS011;18313;48.518;9.124;2023-05-20T02:29:36;9.18;;;6.15;;
31734;SDS011;18313;48.518;9.124;2023-05-20T02:32:03;11.35;;;6.03;;
31734;SDS011;18313;48.518;9.124;2023-05-20T02:34:31;8.88;;;5.97;;
31734;SDS011;18313;48.518;9.124;2023-05-20T02:36:58;11.93;;;6.07;;
31734;SDS011;18313;48.518;9.124;2023-05-20T02:39:25;10.52;;;6.00;;
31734;SDS011;18313;48.518;9.124;2023-05-20T02:41:53;9.25;;;5.97;;
31734;SDS011;18313;48.518;9.124;2023-05-20T02:44:21;8.88;;;5.57;;
31734;SDS011;18313;48.518;9.124;2023-05-20T02:46:48;7.75;;;5.38;;
31734;SDS011;18313;48.518;9.124;2023-05-20T02:49:15;10.50;;;6.05;;
31734;SDS011;18313;48.518;9.124;2023-05-20T02:51:43;9.13;;;5.20;;
31734;SDS011;18313;48.518;9.124;2023-05-20T02:54:10;8.55;;;5.40;;
31734;SDS011;18313;48.518;9.124;2023-05-20T02:56:37;9.70;;;4.88;;
31734;SDS011;18313;48.518;9.124;2023-05-20T02:59:04;8.73;;;5.05;;
31734;SDS011;18313;48.518;9.124;2023-05-20T03:01:32;7.55;;;4.82;;
31734;SDS011;18313;48.518;9.124;2023-05-20T03:04:02;9.10;;;5.20;;
31734;SDS011;18313;48.518;9.124;2023-05-20T03:06:30;9.48;;;5.38;;
31734;SDS011;18313;48.518;9.124;2023-05-20T03:08:57;10.07;;;5.82;;
31734;SDS011;18313;48.518;9.124;2023-05-20T03:11:25;8.75;;;5.57;;
31734;SDS011;18313;48.518;9.124;2023-05-20T03:13:52;8.43;;;5.50;;
31734;SDS011;18313;48.518;9.124;2023-05-20T03:16:19;9.50;;;5.40;;
31734;SDS011;18313;48.518;9.124;2023-05-20T03:18:46;10.85;;;6.65;;
31734;SDS011;18313;48.518;9.124;2023-05-20T03:21:15;11.75;;;7.07;;
31734;SDS011;18313;48.518;9.124;2023-05-20T03:23:42;13.25;;;5.50;;
31734;SDS011;18313;48.518;9.124;2023-05-20T03:26:09;9.52;;;5.82;;
31734;SDS011;18313;48.518;9.124;2023-05-20T03:28:36;9.02;;;5.95;;
31734;SDS011;18313;48.518;9.124;2023-05-20T03:31:03;8.18;;;5.45;;
31734;SDS011;18313;48.518;9.124;2023-05-20T03:33:33;9.30;;;5.70;;
31734;SDS011;18313;48.518;9.124;2023-05-20T03:36:01;12.20;;;6.13;;
31734;SDS011;18313;48.518;9.124;2023-05-20T03:38:28;12.73;;;5.90;;
31734;SDS011;18313;48.518;9.124;2023-05-20T03:40:56;9.68;;;5.80;;
31734;SDS011;18313;48.518;9.124;2023-05-20T03:43:24;10.55;;;6.40;;
31734;SDS011;18313;48.518;9.124;2023-05-20T03:45:52;9.18;;;6.03;;
31734;SDS011;18313;48.518;9.124;2023-05-20T03:48:20;10.73;;;6.00;;
31734;SDS011;18313;48.518;9.124;2023-05-20T03:50:48;10.43;;;6.30;;
31734;SDS011;18313;48.518;9.124;2023-05-20T03:53:15;9.65;;;5.72;;
31734;SDS011;18313;48.518;9.124;2023-05-20T03:55:42;12.68;;;6.20;;
31734;SDS011;18313;48.518;9.124;2023-05-20T03:58:10;10.82;;;5.65;;
31734;SDS011;18313;48.518;9.124;2023-05-20T04:00:39;10.95;;;6.38;;
31734;SDS011;18313;48.518;9.124;2023-05-20T04:03:06;10.15;;;5.60;;
31734;SDS011;18313;48.518;9.124;2023-05-20T04:05:34;13.57;;;6.07;;
31734;SDS011;18313;48.518;9.124;2023-05-20T04:08:02;11.07;;;5.90;;
31734;SDS011;18313;48.518;9.124;2023-05-20T04:10:33;8.57;;;5.28;;
31734;SDS011;18313;48.518;9.124;2023-05-20T04:13:00;8.00;;;5.20;;
31734;SDS011;18313;48.518;9.124;2023-05-20T04:15:28;7.43;;;5.20;;
31734;SDS011;18313;48.518;9.124;2023-05-20T04:17:56;9.93;;;5.95;;
31734;SDS011;18313;48.518;9.124;2023-05-20T04:20:23;10.05;;;5.57;;
31734;SDS011;18313;48.518;9.124;2023-05-20T04:22:50;8.73;;;5.40;;
31734;SDS011;18313;48.518;9.124;2023-05-20T04:25:17;7.60;;;5.22;;
31734;SDS011;18313;48.518;9.124;2023-05-20T04:27:45;9.70;;;4.97;;
31734;SDS011;18313;48.518;9.124;2023-05-20T04:30:13;9.10;;;4.70;;
31734;SDS011;18313;48.518;9.124;2023-05-20T04:32:43;7.47;;;4.47;;
31734;SDS011;18313;48.518;9.124;2023-05-20T04:35:10;7.30;;;4.85;;
31734;SDS011;18313;48.518;9.124;2023-05-20T04:37:39;8.40;;;4.72;;
31734;SDS011;18313;48.518;9.124;2023-05-20T04:40:08;12.07;;;5.53;;
31734;SDS011;18313;48.518;9.124;2023-05-20T04:42:36;7.15;;;4.68;;
31734;SDS011;18313;48.518;9.124;2023-05-20T04:45:03;6.75;;;4.70;;
31734;SDS011;18313;48.518;9.124;2023-05-20T04:47:31;8.57;;;4.43;;
31734;SDS011;18313;48.518;9.124;2023-05-20T04:50:08;9.02;;;5.22;;
31734;SDS011;18313;48.518;9.124;2023-05-20T04:52:36;8.77;;;5.13;;
31734;SDS011;18313;48.518;9.124;2023-05-20T04:55:07;10.73;;;6.05;;
31734;SDS011;18313;48.518;9.124;2023-05-20T04:57:36;8.38;;;5.55;;
31734;SDS011;18313;48.518;9.124;2023-05-20T05:00:08;11.77;;;6.13;;
31734;SDS011;18313;48.518;9.124;2023-05-20T05:02:36;6.82;;;5.18;;
31734;SDS011;18313;48.518;9.124;2023-05-20T05:05:03;14.15;;;6.40;;
31734;SDS011;18313;48.518;9.124;2023-05-20T05:07:32;10.07;;;6.03;;
31734;SDS011;18313;48.518;9.124;2023-05-20T05:09:59;9.95;;;5.90;;
31734;SDS011;18313;48.518;9.124;2023-05-20T05:12:27;10.82;;;6.20;;
31734;SDS011;18313;48.518;9.124;2023-05-20T05:14:54;9.02;;;5.88;;
31734;SDS011;18313;48.518;9.124;2023-05-20T05:17:21;8.93;;;5.95;;
31734;SDS011;18313;48.518;9.124;2023-05-20T05:19:48;9.10;;;5.45;;
31734;SDS011;18313;48.518;9.124;2023-05-20T05:22:15;8.45;;;5.50;;
31734;SDS011;18313;48.518;9.124;2023-05-20T05:24:43;8.65;;;5.43;;
31734;SDS011;18313;48.518;9.124;2023-05-20T05:27:10;7.93;;;4.78;;
31734;SDS011;18313;48.518;9.124;2023-05-20T05:29:37;7.78;;;5.10;;
31734;SDS011;18313;48.518;9.124;2023-05-20T05:32:05;8.98;;;5.00;;
31734;SDS011;18313;48.518;9.124;2023-05-20T05:34:32;8.70;;;4.88;;
31734;SDS011;18313;48.518;9.124;2023-05-20T05:36:59;6.60;;;4.80;;
31734;SDS011;18313;48.518;9.124;2023-05-20T05:39:27;9.75;;;4.70;;
31734;SDS011;18313;48.518;9.124;2023-05-20T05:41:54;9.32;;;4.93;;
31734;SDS011;18313;48.518;9.124;2023-05-20T05:44:21;8.55;;;5.07;;
31734;SDS011;18313;48.518;9.124;2023-05-20T05:46:48;8.10;;;4.88;;
31734;SDS011;18313;48.518;9.124;2023-05-20T05:49:15;10.93;;;5.30;;
31734;SDS011;18313;48.518;9.124;2023-05-20T05:51:42;7.43;;;5.53;;
31734;SDS011;18313;48.518;9.124;2023-05-20T05:54:10;8.70;;;5.63;;
31734;SDS011;18313;48.518;9.124;2023-05-20T05:56:37;8.43;;;5.28;;
31734;SDS011;18313;48.518;9.124;2023-05-20T05:59:04;7.75;;;5.32;;
31734;SDS011;18313;48.518;9.124;2023-05-20T06:01:31;11.15;;;5.50;;
31734;SDS011;18313;48.518;9.124;2023-05-20T06:03:58;8.43;;;5.18;;
31734;SDS011;18313;48.518;9.124;2023-05-20T06:06:26;9.35;;;5.15;;
31734;SDS011;18313;48.518;9.124;2023-05-20T06:08:53;8.05;;;5.10;;
31734;SDS011;18313;48.518;9.124;2023-05-20T06:11:21;8.25;;;5.03;;
31734;SDS011;18313;48.518;9.124;2023-05-20T06:13:49;11.93;;;5.18;;
31734;SDS011;18313;48.518;9.124;2023-05-20T06:16:16;8.65;;;5.55;;
31734;SDS011;18313;48.518;9.124;2023-05-20T06:18:47;8.10;;;4.93;;
31734;SDS011;18313;48.518;9.124;2023-05-20T06:23:45;10.10;;;5.88;;
31734;SDS011;18313;48.518;9.124;2023-05-20T06:26:13;7.53;;;4.95;;
31734;SDS011;18313;48.518;9.124;2023-05-20T06:28:40;10.75;;;5.70;;
31734;SDS011;18313;48.518;9.124;2023-05-20T06:31:07;7.88;;;5.20;;
31734;SDS011;18313;48.518;9.124;2023-05-20T06:33:34;7.95;;;5.30;;
31734;SDS011;18313;48.518;9.124;2023-05-20T06:36:02;12.18;;;6.07;;
31734;SDS011;18313;48.518;9.124;2023-05-20T06:38:29;7.55;;;5.47;;
31734;SDS011;18313;48.518;9.124;2023-05-20T06:40:57;11.07;;;5.72;;
31734;SDS011;18313;48.518;9.124;2023-05-20T06:43:24;13.38;;;7.63;;
31734;SDS011;18313;48.518;9.124;2023-05-20T06:45:52;10.93;;;5.63;;
31734;SDS011;18313;48.518;9.124;2023-05-20T06:48:19;9.80;;;5.75;;
31734;SDS011;18313;48.518;9.124;2023-05-20T06:50:47;8.93;;;5.75;;
31734;SDS011;18313;48.518;9.124;2023-05-20T06:53:14;9.75;;;5.65;;
31734;SDS011;18313;48.518;9.124;2023-05-20T06:55:42;9.65;;;5.72;;
31734;SDS011;18313;48.518;9.124;2023-05-20T06:58:09;7.15;;;5.45;;
31734;SDS011;18313;48.518;9.124;2023-05-20T07:00:36;10.77;;;5.68;;
31734;SDS011;18313;48.518;9.124;2023-05-20T07:03:04;7.85;;;5.53;;
31734;SDS011;18313;48.518;9.124;2023-05-20T07:05:32;8.68;;;5.78;;
31734;SDS011;18313;48.518;9.124;2023-05-20T07:07:59;7.53;;;5.32;;
31734;SDS011;18313;48.518;9.124;2023-05-20T07:10:26;9.80;;;6.05;;
31734;SDS011;18313;48.518;9.124;2023-05-20T07:12:53;8.52;;;5.43;;
31734;SDS011;18313;48.518;9.124;2023-05-20T07:15:21;8.05;;;5.57;;
31734;SDS011;18313;48.518;9.124;2023-05-20T07:17:48;10.73;;;5.45;;
31734;SDS011;18313;48.518;9.124;2023-05-20T07:20:16;8.05;;;5.40;;
31734;SDS011;18313;48.518;9.124;2023-05-20T07:22:43;8.30;;;5.53;;
31734;SDS011;18313;48.518;9.124;2023-05-20T07:25:10;9.25;;;5.72;;
31734;SDS011;18313;48.518;9.124;2023-05-20T07:27:37;7.80;;;4.90;;
31734;SDS011;18313;48.518;9.124;2023-05-20T07:30:04;8.02;;;5.80;;
31734;SDS011;18313;48.518;9.124;2023-05-20T07:32:32;7.97;;;5.57;;
31734;SDS011;18313;48.518;9.124;2023-05-20T07:34:59;7.20;;;5.63;;
31734;SDS011;18313;48.518;9.124;2023-05-20T07:37:27;7.55;;;5.15;;
31734;SDS011;18313;48.518;9.124;2023-05-20T07:39:54;8.38;;;5.55;;
31734;SDS011;18313;48.518;9.124;2023-05-20T07:42:21;8.13;;;5.70;;
31734;SDS011;18313;48.518;9.124;2023-05-20T07:44:48;9.05;;;5.50;;
31734;SDS011;18313;48.518;9.124;2023-05-20T07:47:15;7.70;;;5.65;;
31734;SDS011;18313;48.518;9.124;2023-05-20T07:49:42;6.72;;;5.47;;
31734;SDS011;18313;48.518;9.124;2023-05-20T07:52:10;8.55;;;5.95;;
31734;SDS011;18313;48.518;9.124;2023-05-20T07:54:37;9.13;;;5.82;;
31734;SDS011;18313;48.518;9.124;2023-05-20T07:59:56;11.57;;;6.30;;
31734;SDS011;18313;48.518;9.124;2023-05-20T08:02:24;7.80;;;5.50;;
31734;SDS011;18313;48.518;9.124;2023-05-20T08:04:52;10.38;;;5.60;;
31734;SDS011;18313;48.518;9.124;2023-05-20T08:07:19;9.07;;;5.82;;
31734;SDS011;18313;48.518;9.124;2023-05-20T08:10:12;9.10;;;5.97;;
31734;SDS011;18313;48.518;9.124;2023-05-20T08:12:39;7.55;;;5.30;;
31734;SDS011;18313;48.518;9.124;2023-05-20T08:15:07;9.63;;;6.07;;
31734;SDS011;18313;48.518;9.124;2023-05-20T08:17:34;8.68;;;5.53;;
31734;SDS011;18313;48.518;9.124;2023-05-20T08:20:01;8.13;;;5.88;;
31734;SDS011;18313;48.518;9.124;2023-05-20T08:22:29;8.90;;;5.47;;
31734;SDS011;18313;48.518;9.124;2023-05-20T08:24:57;11.25;;;5.95;;
31734;SDS011;18313;48.518;9.124;2023-05-20T08:27:24;7.80;;;5.38;;
31734;SDS011;18313;48.518;9.124;2023-05-20T08:29:51;7.55;;;5.20;;
31734;SDS011;18313;48.518;9.124;2023-05-20T08:32:18;10.25;;;6.13;;
31734;SDS011;18313;48.518;9.124;2023-05-20T08:34:46;8.52;;;5.55;;
31734;SDS011;18313;48.518;9.124;2023-05-20T08:37:14;9.10;;;5.57;;
31734;SDS011;18313;48.518;9.124;2023-05-20T08:39:42;8.70;;;5.78;;
31734;SDS011;18313;48.518;9.124;2023-05-20T08:42:11;7.70;;;5.75;;
31734;SDS011;18313;48.518;9.124;2023-05-20T08:44:39;7.78;;;5.60;;
31734;SDS011;18313;48.518;9.124;2023-05-20T08:47:08;9.13;;;5.55;;
31734;SDS011;18313;48.518;9.124;2023-05-20T08:49:37;8.15;;;5.43;;
31734;SDS011;18313;48.518;9.124;2023-05-20T08:52:04;7.63;;;5.70;;
31734;SDS011;18313;48.518;9.124;2023-05-20T08:54:45;7.13;;;4.88;;
31734;SDS011;18313;48.518;9.124;2023-05-20T08:57:14;8.05;;;5.35;;
31734;SDS011;18313;48.518;9.124;2023-05-20T08:59:41;9.82;;;5.28;;
31734;SDS011;18313;48.518;9.124;2023-05-20T09:02:10;9.18;;;5.50;;
31734;SDS011;18313;48.518;9.124;2023-05-20T09:04:37;6.90;;;5.35;;
31734;SDS011;18313;48.518;9.124;2023-05-20T09:07:05;9.15;;;5.07;;
31734;SDS011;18313;48.518;9.124;2023-05-20T09:09:32;8.75;;;5.35;;
31734;SDS011;18313;48.518;9.124;2023-05-20T09:12:01;8.43;;;5.03;;
31734;SDS011;18313;48.518;9.124;2023-05-20T09:14:29;6.75;;;4.80;;
31734;SDS011;18313;48.518;9.124;2023-05-20T09:16:57;10.63;;;5.35;;
31734;SDS011;18313;48.518;9.124;2023-05-20T09:19:24;9.20;;;5.05;;
31734;SDS011;18313;48.518;9.124;2023-05-20T09:21:52;10.38;;;4.90;;
31734;SDS011;18313;48.518;9.124;2023-05-20T09:24:24;7.53;;;4.95;;
31734;SDS011;18313;48.518;9.124;2023-05-20T09:26:52;7.53;;;5.53;;
31734;SDS011;18313;48.518;9.124;2023-05-20T09:29:20;8.75;;;5.97;;
31734;SDS011;18313;48.518;9.124;2023-05-20T09:31:50;7.10;;;5.25;;
31734;SDS011;18313;48.518;9.124;2023-05-20T09:34:18;10.70;;;5.07;;
31734;SDS011;18313;48.518;9.124;2023-05-20T09:36:47;7.28;;;5.18;;
31734;SDS011;18313;48.518;9.124;2023-05-20T09:39:18;7.70;;;4.70;;
31734;SDS011;18313;48.518;9.124;2023-05-20T09:41:54;7.57;;;5.45;;
31734;SDS011;18313;48.518;9.124;2023-05-20T09:44:29;6.43;;;4.95;;
31734;SDS011;18313;48.518;9.124;2023-05-20T09:46:57;6.78;;;5.10;;
31734;SDS011;18313;48.518;9.124;2023-05-20T09:49:27;6.65;;;4.97;;
31734;SDS011;18313;48.518;9.124;2023-05-20T09:51:56;7.63;;;5.10;;
31734;SDS011;18313;48.518;9.124;2023-05-20T09:54:25;7.22;;;5.05;;
31734;SDS011;18313;48.518;9.124;2023-05-20T09:56:56;6.80;;;4.72;;
31734;SDS011;18313;48.518;9.124;2023-05-20T09:59:25;6.13;;;4.60;;
31734;SDS011;18313;48.518;9.124;2023-05-20T10:01:53;7.20;;;5.13;;
31734;SDS011;18313;48.518;9.124;2023-05-20T10:04:21;6.88;;;5.05;;
31734;SDS011;18313;48.518;9.124;2023-05-20T10:09:48;8.48;;;5.10;;
31734;SDS011;18313;48.518;9.124;2023-05-20T10:12:33;6.07;;;5.35;;
31734;SDS011;18313;48.518;9.124;2023-05-20T10:15:12;8.75;;;5.43;;
31734;SDS011;18313;48.518;9.124;2023-05-20T10:20:47;9.85;;;5.60;;
31734;SDS011;18313;48.518;9.124;2023-05-20T10:23:26;6.65;;;4.93;;
31734;SDS011;18313;48.518;9.124;2023-05-20T10:25:56;7.10;;;4.72;;
31734;SDS011;18313;48.518;9.124;2023-05-20T10:28:32;7.03;;;4.80;;
31734;SDS011;18313;48.518;9.124;2023-05-20T10:31:02;5.93;;;4.75;;
31734;SDS011;18313;48.518;9.124;2023-05-20T10:33:44;9.68;;;5.53;;
31734;SDS011;18313;48.518;9.124;2023-05-20T10:36:27;8.52;;;5.38;;
31734;SDS011;18313;48.518;9.124;2023-05-20T10:38:58;8.10;;;4.82;;
31734;SDS011;18313;48.518;9.124;2023-05-20T10:41:26;6.30;;;4.68;;
31734;SDS011;18313;48.518;9.124;2023-05-20T10:44:01;10.38;;;5.00;;
31734;SDS011;18313;48.518;9.124;2023-05-20T10:46:29;8.95;;;4.60;;
31734;SDS011;18313;48.518;9.124;2023-05-20T10:49:17;7.82;;;4.93;;
31734;SDS011;18313;48.518;9.124;2023-05-20T10:51:52;8.27;;;4.97;;
31734;SDS011;18313;48.518;9.124;2023-05-20T10:54:21;6.10;;;4.50;;
31734;SDS011;18313;48.518;9.124;2023-05-20T10:56:52;5.95;;;3.92;;
31734;SDS011;18313;48.518;9.124;2023-05-20T10:59:20;7.55;;;4.30;;
31734;SDS011;18313;48.518;9.124;2023-05-20T11:01:48;5.88;;;4.03;;
31734;SDS011;18313;48.518;9.124;2023-05-20T11:04:16;6.45;;;4.15;;
31734;SDS011;18313;48.518;9.124;2023-05-20T11:06:48;5.50;;;4.00;;
31734;SDS011;18313;48.518;9.124;2023-05-20T11:09:20;9.00;;;4.88;;
31734;SDS011;18313;48.518;9.124;2023-05-20T11:11:48;7.85;;;4.28;;
31734;SDS011;18313;48.518;9.124;2023-05-20T11:14:17;5.00;;;3.65;;
31734;SDS011;18313;48.518;9.124;2023-05-20T11:16:45;6.15;;;4.40;;
31734;SDS011;18313;48.518;9.124;2023-05-20T11:19:17;7.50;;;4.40;;
31734;SDS011;18313;48.518;9.124;2023-05-20T11:21:44;7.22;;;4.32;;
31734;SDS011;18313;48.518;9.124;2023-05-20T11:24:12;7.93;;;4.25;;
31734;SDS011;18313;48.518;9.124;2023-05-20T11:26:39;7.70;;;3.90;;
31734;SDS011;18313;48.518;9.124;2023-05-20T11:29:07;5.65;;;4.10;;
31734;SDS011;18313;48.518;9.124;2023-05-20T11:31:36;6.50;;;4.00;;
31734;SDS011;18313;48.518;9.124;2023-05-20T11:34:04;5.75;;;3.95;;
31734;SDS011;18313;48.518;9.124;2023-05-20T11:36:31;6.82;;;4.40;;
31734;SDS011;18313;48.518;9.124;2023-05-20T11:38:58;6.70;;;4.38;;
31734;SDS011;18313;48.518;9.124;2023-05-20T11:41:26;6.00;;;3.97;;
31734;SDS011;18313;48.518;9.124;2023-05-20T11:43:57;6.05;;;4.07;;
31734;SDS011;18313;48.518;9.124;2023-05-20T11:46:25;6.53;;;3.90;;
31734;SDS011;18313;48.518;9.124;2023-05-20T11:48:53;7.70;;;4.20;;
31734;SDS011;18313;48.518;9.124;2023-05-20T11:51:27;6.35;;;3.92;;
31734;SDS011;18313;48.518;9.124;2023-05-20T11:54:01;6.38;;;3.60;;
31734;SDS011;18313;48.518;9.124;2023-05-20T11:56:30;7.10;;;3.50;;
31734;SDS011;18313;48.518;9.124;2023-05-20T11:58:59;5.50;;;3.90;;
31734;SDS011;18313;48.518;9.124;2023-05-20T12:01:30;5.53;;;3.70;;
31734;SDS011;18313;48.518;9.124;2023-05-20T12:04:06;5.70;;;3.85;;
31734;SDS011;18313;48.518;9.124;2023-05-20T12:06:34;7.28;;;4.03;;
31734;SDS011;18313;48.518;9.124;2023-05-20T12:09:05;9.35;;;3.70;;
31734;SDS011;18313;48.518;9.124;2023-05-20T12:11:34;5.88;;;3.75;;
31734;SDS011;18313;48.518;9.124;2023-05-20T12:14:03;6.82;;;3.97;;
31734;SDS011;18313;48.518;9.124;2023-05-20T12:16:30;6.85;;;3.58;;
31734;SDS011;18313;48.518;9.124;2023-05-20T12:18:59;5.03;;;3.80;;
31734;SDS011;18313;48.518;9.124;2023-05-20T12:21:30;7.50;;;3.63;;
31734;SDS011;18313;48.518;9.124;2023-05-20T12:23:57;4.75;;;3.65;;
31734;SDS011;18313;48.518;9.124;2023-05-20T12:26:25;4.53;;;3.30;;
31734;SDS011;18313;48.518;9.124;2023-05-20T12:28:53;5.75;;;3.75;;
31734;SDS011;18313;48.518;9.124;2023-05-20T12:31:21;7.05;;;3.55;;
31734;SDS011;18313;48.518;9.124;2023-05-20T12:33:48;5.78;;;3.50;;
31734;SDS011;18313;48.518;9.124;2023-05-20T12:36:16;5.28;;;3.40;;
31734;SDS011;18313;48.518;9.124;2023-05-20T12:38:45;5.65;;;3.90;;
31734;SDS011;18313;48.518;9.124;2023-05-20T12:41:12;4.32;;;3.50;;
31734;SDS011;18313;48.518;9.124;2023-05-20T12:43:39;7.75;;;3.55;;
31734;SDS011;18313;48.518;9.124;2023-05-20T12:46:07;8.30;;;3.50;;
31734;SDS011;18313;48.518;9.124;2023-05-20T12:48:34;5.57;;;3.85;;
31734;SDS011;18313;48.518;9.124;2023-05-20T12:51:02;6.97;;;3.60;;
31734;SDS011;18313;48.518;9.124;2023-05-20T12:53:29;6.00;;;3.50;;
31734;SDS011;18313;48.518;9.124;2023-05-20T12:55:56;5.63;;;3.55;;
31734;SDS011;18313;48.518;9.124;2023-05-20T12:58:24;5.40;;;3.60;;
31734;SDS011;18313;48.518;9.124;2023-05-20T13:00:51;5.97;;;3.72;;
31734;SDS011;18313;48.518;9.124;2023-05-20T13:03:18;6.93;;;3.38;;
31734;SDS011;18313;48.518;9.124;2023-05-20T13:05:46;12.00;;;3.63;;
31734;SDS011;18313;48.518;9.124;2023-05-20T13:08:13;5.85;;;3.67;;
31734;SDS011;18313;48.518;9.124;2023-05-20T13:10:40;9.45;;;3.83;;
31734;SDS011;18313;48.518;9.124;2023-05-20T13:13:07;6.30;;;3.70;;
31734;SDS011;18313;48.518;9.124;2023-05-20T13:15:34;4.95;;;3.45;;
31734;SDS011;18313;48.518;9.124;2023-05-20T13:18:02;5.78;;;3.55;;
31734;SDS011;18313;48.518;9.124;2023-05-20T13:20:32;9.65;;;3.80;;
31734;SDS011;18313;48.518;9.124;2023-05-20T13:23:00;4.80;;;3.05;;
31734;SDS011;18313;48.518;9.124;2023-05-20T13:25:27;11.25;;;4.00;;
31734;SDS011;18313;48.518;9.124;2023-05-20T13:27:55;7.15;;;3.17;;
31734;SDS011;18313;48.518;9.124;2023-05-20T13:30:22;4.53;;;3.00;;
31734;SDS011;18313;48.518;9.124;2023-05-20T13:32:49;7.10;;;3.40;;
31734;SDS011;18313;48.518;9.124;2023-05-20T13:35:17;4.80;;;3.28;;
31734;SDS011;18313;48.518;9.124;2023-05-20T13:37:44;5.72;;;2.95;;
31734;SDS011;18313;48.518;9.124;2023-05-20T13:40:11;5.57;;;3.20;;
31734;SDS011;18313;48.518;9.124;2023-05-20T13:42:38;5.18;;;3.40;;
31734;SDS011;18313;48.518;9.124;2023-05-20T13:45:06;4.70;;;3.10;;
31734;SDS011;18313;48.518;9.124;2023-05-20T13:47:33;5.10;;;3.25;;
31734;SDS011;18313;48.518;9.124;2023-05-20T13:50:00;6.20;;;3.60;;
31734;SDS011;18313;48.518;9.124;2023-05-20T13:52:28;4.88;;;2.90;;
31734;SDS011;18313;48.518;9.124;2023-05-20T13:54:55;4.45;;;3.13;;
31734;SDS011;18313;48.518;9.124;2023-05-20T13:57:23;5.00;;;3.60;;
31734;SDS011;18313;48.518;9.124;2023-05-20T13:59:50;5.45;;;3.10;;
31734;SDS011;18313;48.518;9.124;2023-05-20T14:02:17;8.18;;;3.28;;
31734;SDS011;18313;48.518;9.124;2023-05-20T14:04:45;5.63;;;3.22;;
31734;SDS011;18313;48.518;9.124;2023-05-20T14:07:12;6.40;;;2.85;;
31734;SDS011;18313;48.518;9.124;2023-05-20T14:09:39;4.70;;;2.60;;
31734;SDS011;18313;48.518;9.124;2023-05-20T14:12:07;3.83;;;2.67;;
31734;SDS011;18313;48.518;9.124;2023-05-20T14:14:34;5.05;;;2.70;;
31734;SDS011;18313;48.518;9.124;2023-05-20T14:17:01;4.93;;;2.83;;
31734;SDS011;18313;48.518;9.124;2023-05-20T14:19:29;6.72;;;3.05;;
31734;SDS011;18313;48.518;9.124;2023-05-20T14:21:56;6.10;;;3.15;;
31734;SDS011;18313;48.518;9.124;2023-05-20T14:24:26;4.30;;;2.50;;
31734;SDS011;18313;48.518;9.124;2023-05-20T14:26:53;4.70;;;2.63;;
31734;SDS011;18313;48.518;9.124;2023-05-20T14:29:21;4.10;;;2.50;;
31734;SDS011;18313;48.518;9.124;2023-05-20T14:31:48;7.95;;;3.05;;
31734;SDS011;18313;48.518;9.124;2023-05-20T14:34:15;5.50;;;2.60;;
31734;SDS011;18313;48.518;9.124;2023-05-20T14:36:43;6.57;;;2.90;;
31734;SDS011;18313;48.518;9.124;2023-05-20T14:39:10;4.78;;;2.70;;
31734;SDS011;18313;48.518;9.124;2023-05-20T14:41:37;5.95;;;2.47;;
31734;SDS011;18313;48.518;9.124;2023-05-20T14:44:04;6.97;;;2.50;;
31734;SDS011;18313;48.518;9.124;2023-05-20T14:46:31;3.47;;;2.50;;
31734;SDS011;18313;48.518;9.124;2023-05-20T14:48:58;5.18;;;2.40;;
31734;SDS011;18313;48.518;9.124;2023-05-20T14:51:26;3.90;;;2.40;;
31734;SDS011;18313;48.518;9.124;2023-05-20T14:53:53;3.72;;;2.53;;
31734;SDS011;18313;48.518;9.124;2023-05-20T14:56:35;3.95;;;2.65;;
31734;SDS011;18313;48.518;9.124;2023-05-20T14:59:02;4.93;;;2.38;;
31734;SDS011;18313;48.518;9.124;2023-05-20T15:01:29;7.70;;;2.97;;
31734;SDS011;18313;48.518;9.124;2023-05-20T15:03:56;3.85;;;2.38;;